KORF

Norfolk International Airport

Norfolk, Virginia, USA
METAR KORF 212251Z 09005KT 10SM CLR 31/24 A2974 RMK AO2 SLP072 T03060244 $
Observed Flight Rules
Jun-21 @ 22:51 UTC (an hour ago) Visual Flight Rules
Wind Visibility Clouds
90° at 5 knots 10 miles
  • Clear skies
Temperatures Readings
Current 31°C / 88°F
Dewpoint 24°C / 75°F
Humidity 66%
Altimeter 29.74" Hg
Pressure 1007.2 hPa
Elevation 14
METAR KORF 212251Z 09005KT 10SM CLR 31/24 A2974 RMK AO2 SLP072 T03060244 $
Observed Flight Rules
Jun-21 @ 22:51 UTC
(an hour ago)
VFR
Wind Visibility
90° at 5 knots 10 miles
Clouds
  • Clear skies
Temperature Dewpoint
31°C / 88°F 24°C / 75°F
Humidity Altimeter Pressure
66% 29.74" Hg 1007.2 hPa